Portada
METAR-TAF:

METAR-TAF

Aeroports :

Dammam, Aràbia Saudita

latitud: 26-28N, longitud: 049-47E, altitud: 22 m

Observació

L'informe es va fer fa 14 minuts, a les 23:00 UTC
Vent 3 kt amb direcció variable
Temperatura 21°C
Humitat 53%
Pressió 1007 hPa
Visibilitat 10 km o més
sense núvols per sota de 1500 mi sense presència de cumulonimbus.

METAR: OEDF 142300Z VRB03KT CAVOK 21/11 Q1007 NOSIG

Hora: 02:14 (23:14 UTC)

Pronòstic

L'informe es va fer fa 8 hores i 14 minuts, a les 15:00 UTC
Pronòstic vàlid del 14 a les 18 UTC al 15 a les 24 UTC
Vent 13 kt del Est/Sud-Est
Visibilitat: 7000 m
Núvols disperses a una alçada de 4000 ft
Cel ennuvolat a una alçada de 9000 ft
Temporalment
l' 15 a les 09 UTC al 15 a les 24 UTC
Vent 30 kt amb direcció variable
Visibilitat: 4000 m
Escasses núvols a una alçada de 3500 ft, Cumulonimbus.
tempesta, pluja, torb alta de pols,

TAF: OEDF 141500Z 1418/1524 11013KT 7000 SCT040 BKN090 TEMPO 1509/1524 VRB30KT 4000 TSRA BLDU FEW035CB

Observacions i pronòstics meteorològics de més de 4000 aeroports (METAR i TAF).

Les estacions disponibles són els punts grocs i vermells al mapa.

Posi el ratolí al punt desitjat per veure el nom de l'estació.

Feu clic per veure les observacions i els pronòstics meteorològics.

Per canviar el mapa: feu clic els botons verds amb una creu de color negre per apropar; al botó verd amb un guió per allunyar la imatge; o en les fletxes verdes per a mapes adjacents.


METAR-TAF: